createdAt,value
2018-03-28T00:00:52.316Z,7.00
2018-03-28T00:03:19.983Z,7.00
2018-03-28T00:05:47.535Z,7.00
2018-03-28T00:08:15.300Z,7.10
2018-03-28T00:10:42.873Z,7.10
2018-03-28T00:13:10.343Z,7.10
2018-03-28T00:15:38.600Z,7.10
2018-03-28T00:18:06.075Z,7.10
2018-03-28T00:20:33.739Z,7.10
2018-03-28T00:23:01.200Z,7.00
2018-03-28T00:25:28.743Z,7.00
2018-03-28T00:27:56.209Z,7.00
2018-03-28T00:30:23.836Z,7.00
2018-03-28T00:32:51.419Z,7.00
2018-03-28T00:35:18.878Z,7.10
2018-03-28T00:37:46.480Z,7.00
2018-03-28T00:40:13.946Z,7.00
2018-03-28T00:42:41.405Z,7.00
2018-03-28T00:45:09.013Z,7.00
2018-03-28T00:47:36.484Z,6.90
2018-03-28T00:50:04.262Z,6.90
2018-03-28T00:52:31.845Z,6.90
2018-03-28T00:54:59.456Z,7.00
2018-03-28T00:57:26.916Z,7.00
2018-03-28T00:59:54.380Z,7.00
2018-03-28T01:02:21.847Z,7.10
2018-03-28T01:04:49.340Z,7.10
2018-03-28T01:07:16.981Z,7.00
2018-03-28T01:09:44.520Z,7.00
2018-03-28T01:12:12.284Z,7.00
2018-03-28T01:14:39.997Z,7.00
2018-03-28T01:17:07.465Z,7.00
2018-03-28T01:19:34.923Z,7.10
2018-03-28T01:22:02.391Z,7.10
2018-03-28T01:24:29.964Z,7.10
2018-03-28T01:26:57.435Z,7.10
2018-03-28T01:29:24.905Z,7.10
2018-03-28T01:31:52.371Z,7.10
2018-03-28T01:34:20.892Z,7.10
2018-03-28T01:36:48.353Z,7.20
2018-03-28T01:39:15.815Z,7.20
2018-03-28T01:41:43.292Z,7.20
2018-03-28T01:44:10.757Z,7.10
2018-03-28T01:46:38.227Z,7.20
2018-03-28T01:49:05.863Z,7.20
2018-03-28T01:51:33.331Z,7.20
2018-03-28T01:54:00.796Z,7.10
2018-03-28T01:56:28.276Z,7.20
2018-03-28T01:58:55.744Z,7.10
2018-03-28T02:01:23.976Z,7.10
2018-03-28T02:03:51.662Z,7.00
2018-03-28T02:06:19.132Z,7.00
2018-03-28T02:08:46.887Z,7.00
2018-03-28T02:11:15.261Z,7.10
2018-03-28T02:13:42.720Z,7.00
2018-03-28T02:16:10.195Z,7.00
2018-03-28T02:18:37.948Z,7.00
2018-03-28T02:21:05.715Z,7.10
2018-03-28T02:23:33.388Z,7.00
2018-03-28T02:26:00.940Z,7.00
2018-03-28T02:28:28.734Z,7.00
2018-03-28T02:30:56.469Z,7.00
2018-03-28T02:33:23.932Z,7.00
2018-03-28T02:35:51.401Z,7.00
2018-03-28T02:38:18.870Z,7.00
2018-03-28T02:40:46.612Z,7.10
2018-03-28T02:43:14.076Z,7.00
2018-03-28T02:45:41.541Z,7.10
2018-03-28T02:48:09.289Z,7.00
2018-03-28T02:50:37.059Z,7.00
2018-03-28T02:53:04.536Z,7.00
2018-03-28T02:55:32.003Z,7.00
2018-03-28T02:57:59.460Z,7.10
2018-03-28T03:00:26.930Z,7.10
2018-03-28T03:02:54.654Z,7.00
2018-03-28T03:05:22.115Z,7.10
2018-03-28T03:07:49.582Z,7.00
2018-03-28T03:10:17.339Z,7.00
2018-03-28T03:12:44.792Z,7.00
2018-03-28T03:15:12.266Z,7.00
2018-03-28T03:17:40.009Z,7.00
2018-03-28T03:20:07.812Z,7.00
2018-03-28T03:22:35.282Z,6.90
2018-03-28T03:25:02.744Z,6.90
2018-03-28T03:27:30.266Z,7.00
2018-03-28T03:29:58.504Z,7.00
2018-03-28T03:32:26.040Z,6.90
2018-03-28T03:34:53.616Z,7.00
2018-03-28T03:37:21.811Z,7.00
2018-03-28T03:39:49.588Z,7.00
2018-03-28T03:42:17.048Z,7.10
2018-03-28T03:44:44.520Z,7.00
2018-03-28T03:47:12.172Z,7.10
2018-03-28T03:49:39.656Z,7.00
2018-03-28T03:52:07.121Z,7.10
2018-03-28T03:54:34.580Z,7.10
2018-03-28T03:57:02.101Z,7.00
2018-03-28T03:59:29.564Z,7.00
2018-03-28T04:01:57.477Z,7.00
2018-03-28T04:04:25.086Z,7.00
2018-03-28T04:06:52.543Z,7.00
2018-03-28T04:09:20.029Z,7.00
2018-03-28T04:11:47.764Z,7.00
2018-03-28T04:14:15.230Z,7.00
2018-03-28T04:16:42.721Z,7.00
2018-03-28T04:19:10.194Z,7.00
2018-03-28T04:21:37.672Z,7.00
2018-03-28T04:24:05.293Z,6.90
2018-03-28T04:26:32.767Z,7.00
2018-03-28T04:29:00.300Z,7.00
2018-03-28T04:31:27.772Z,7.00
2018-03-28T04:33:55.248Z,7.00
2018-03-28T04:36:22.707Z,7.00
2018-03-28T04:38:50.210Z,7.00
2018-03-28T04:41:17.694Z,7.00
2018-03-28T04:43:45.983Z,7.00
2018-03-28T04:46:13.605Z,7.00
2018-03-28T04:48:41.079Z,6.90
2018-03-28T04:51:08.555Z,6.90
2018-03-28T04:53:36.027Z,6.90
2018-03-28T04:56:03.512Z,6.90
2018-03-28T04:58:31.280Z,7.00
2018-03-28T05:00:58.740Z,7.00
2018-03-28T05:03:26.214Z,7.00
2018-03-28T05:05:53.704Z,7.00
2018-03-28T05:08:21.368Z,7.00
2018-03-28T05:10:48.823Z,7.00
2018-03-28T05:13:16.299Z,6.90
2018-03-28T05:15:43.852Z,7.00
2018-03-28T05:18:11.288Z,7.00
2018-03-28T05:20:38.756Z,7.00
2018-03-28T05:23:06.508Z,7.00
2018-03-28T05:25:33.971Z,7.00
2018-03-28T05:28:01.531Z,7.00
2018-03-28T05:30:29.185Z,7.00
2018-03-28T05:32:56.648Z,7.00
2018-03-28T05:35:24.403Z,7.00
2018-03-28T05:37:51.864Z,7.00
2018-03-28T05:40:19.328Z,7.00
2018-03-28T05:42:47.106Z,7.00
2018-03-28T05:45:14.543Z,7.00
2018-03-28T05:47:42.320Z,7.00
2018-03-28T05:50:09.783Z,7.00
2018-03-28T05:52:38.019Z,7.00
2018-03-28T05:55:05.504Z,7.10
2018-03-28T05:57:33.383Z,7.10
2018-03-28T06:00:00.849Z,7.00
2018-03-28T06:02:28.320Z,7.00
2018-03-28T06:04:55.772Z,7.00
2018-03-28T06:07:23.534Z,7.00
2018-03-28T06:09:51.187Z,7.00
2018-03-28T06:12:18.667Z,7.00
2018-03-28T06:14:46.191Z,7.10
2018-03-28T06:17:13.655Z,7.10
2018-03-28T06:19:41.124Z,7.10
2018-03-28T06:22:08.609Z,7.10
2018-03-28T06:24:36.341Z,7.20
2018-03-28T06:27:04.118Z,7.20
2018-03-28T06:29:31.677Z,7.20
2018-03-28T06:31:59.906Z,7.20
2018-03-28T06:34:27.396Z,7.20
2018-03-28T06:36:54.860Z,7.30
2018-03-28T06:39:22.624Z,7.30
2018-03-28T06:41:50.398Z,7.30
2018-03-28T06:44:18.082Z,7.30
2018-03-28T06:46:45.569Z,7.30
2018-03-28T06:49:13.083Z,7.30
2018-03-28T06:51:40.797Z,7.20
2018-03-28T06:54:08.247Z,7.30
2018-03-28T06:56:35.710Z,7.40
2018-03-28T06:59:03.230Z,7.40
2018-03-28T07:01:30.700Z,7.40
2018-03-28T07:03:58.183Z,7.30
2018-03-28T07:06:25.895Z,7.30
2018-03-28T07:08:53.652Z,7.30
2018-03-28T07:11:21.432Z,7.40
2018-03-28T07:13:49.084Z,7.50
2018-03-28T07:16:16.564Z,7.60
2018-03-28T07:18:44.043Z,7.70
2018-03-28T07:21:11.509Z,7.70
2018-03-28T07:23:38.967Z,7.80
2018-03-28T07:26:06.440Z,7.90
2018-03-28T07:28:33.913Z,8.00
2018-03-28T07:31:01.373Z,8.00
2018-03-28T07:33:28.850Z,8.10
2018-03-28T07:35:56.617Z,8.20
2018-03-28T07:38:24.096Z,8.10
2018-03-28T07:40:52.349Z,7.90
2018-03-28T07:43:19.810Z,7.90
2018-03-28T07:45:47.611Z,8.00
2018-03-28T07:48:15.097Z,8.00
2018-03-28T07:50:42.585Z,8.00
2018-03-28T07:53:10.333Z,8.00
2018-03-28T07:55:37.799Z,8.00
2018-03-28T07:58:05.272Z,8.00
2018-03-28T08:00:32.760Z,7.90
2018-03-28T08:03:00.220Z,7.90
2018-03-28T08:05:27.949Z,7.90
2018-03-28T08:07:55.413Z,7.80
2018-03-28T08:10:23.164Z,7.80
2018-03-28T08:12:50.936Z,7.80
2018-03-28T08:15:18.397Z,7.80
2018-03-28T08:17:45.904Z,7.80
2018-03-28T08:20:13.379Z,7.90
2018-03-28T08:22:40.847Z,8.10
2018-03-28T08:25:08.326Z,8.30
2018-03-28T08:27:35.903Z,8.40
2018-03-28T08:30:03.371Z,8.70
2018-03-28T08:32:30.908Z,8.80
2018-03-28T08:34:58.385Z,8.90
2018-03-28T08:37:26.039Z,9.10
2018-03-28T08:39:53.509Z,9.20
2018-03-28T08:42:20.979Z,9.40
2018-03-28T08:44:48.445Z,9.50
2018-03-28T08:47:15.961Z,9.70
2018-03-28T08:49:43.631Z,9.90
2018-03-28T08:52:11.124Z,10.00
2018-03-28T08:54:38.596Z,10.20
2018-03-28T08:57:06.105Z,10.40
2018-03-28T08:59:33.864Z,10.40
2018-03-28T09:02:01.648Z,10.40
2018-03-28T09:04:29.387Z,10.50
2018-03-28T09:06:56.868Z,10.30
2018-03-28T09:09:24.463Z,10.40
2018-03-28T09:11:52.083Z,10.50
2018-03-28T09:14:19.536Z,10.60
2018-03-28T09:16:47.016Z,10.50
2018-03-28T09:19:14.632Z,10.40
2018-03-28T09:21:42.992Z,10.30
2018-03-28T09:24:10.532Z,10.30
2018-03-28T09:26:38.007Z,10.40
2018-03-28T09:29:05.472Z,10.50
2018-03-28T09:31:32.952Z,10.50
2018-03-28T09:34:00.423Z,10.40
2018-03-28T09:36:28.192Z,10.40
2018-03-28T09:38:55.656Z,10.40
2018-03-28T09:41:23.416Z,10.40
2018-03-28T09:43:50.879Z,10.40
2018-03-28T09:46:18.632Z,10.40
2018-03-28T09:48:46.108Z,10.40
2018-03-28T09:51:13.860Z,10.30
2018-03-28T09:53:41.553Z,10.30
2018-03-28T09:56:09.064Z,10.20
2018-03-28T09:58:36.546Z,10.40
2018-03-28T10:01:08.823Z,10.40
2018-03-28T10:03:42.817Z,10.40
2018-03-28T10:06:10.585Z,10.40
2018-03-28T10:08:38.052Z,10.30
2018-03-28T10:11:05.600Z,10.10
2018-03-28T10:13:33.071Z,9.90
2018-03-28T10:16:01.308Z,9.90
2018-03-28T10:18:28.774Z,9.80
2018-03-28T10:20:56.375Z,10.00
2018-03-28T10:23:24.631Z,10.20
2018-03-28T10:25:52.099Z,10.20
2018-03-28T10:28:19.851Z,10.40
2018-03-28T10:30:47.624Z,10.50
2018-03-28T10:33:15.184Z,10.60
2018-03-28T10:35:42.652Z,10.70
2018-03-28T10:38:10.308Z,10.70
2018-03-28T10:40:38.069Z,10.70
2018-03-28T10:43:05.739Z,10.60
2018-03-28T10:45:33.295Z,10.50
2018-03-28T10:48:00.972Z,10.40
2018-03-28T10:50:29.211Z,10.10
2018-03-28T10:52:57.049Z,10.10
2018-03-28T10:55:24.573Z,10.10
2018-03-28T10:57:52.111Z,10.00
2018-03-28T11:00:19.885Z,9.90
2018-03-28T11:02:47.524Z,9.80
2018-03-28T11:05:15.028Z,9.70
2018-03-28T11:07:42.606Z,9.60
2018-03-28T11:10:10.051Z,9.60
2018-03-28T11:12:37.694Z,9.60
2018-03-28T11:15:05.219Z,9.50
2018-03-28T11:17:32.698Z,9.60
2018-03-28T11:20:00.380Z,9.60
2018-03-28T11:22:27.932Z,9.60
2018-03-28T11:24:55.691Z,9.60
2018-03-28T11:27:23.452Z,9.60
2018-03-28T11:29:51.224Z,9.50
2018-03-28T11:32:18.688Z,9.50
2018-03-28T11:34:46.166Z,9.50
2018-03-28T11:37:13.815Z,9.40
2018-03-28T11:39:41.363Z,9.30
2018-03-28T11:42:09.124Z,9.20
2018-03-28T11:44:36.799Z,9.10
2018-03-28T11:47:04.275Z,9.20
2018-03-28T11:49:31.744Z,9.20
2018-03-28T11:51:59.260Z,9.40
2018-03-28T11:54:27.037Z,9.50
2018-03-28T11:56:55.285Z,9.60
2018-03-28T11:59:22.864Z,9.60
2018-03-28T12:01:50.339Z,9.60
2018-03-28T12:04:17.808Z,9.50
2018-03-28T12:06:45.531Z,9.50
2018-03-28T12:09:12.996Z,9.50
2018-03-28T12:11:40.459Z,9.50
2018-03-28T12:14:08.222Z,9.60
2018-03-28T12:16:35.992Z,9.60
2018-03-28T12:19:03.752Z,9.70
2018-03-28T12:21:31.227Z,9.80
2018-03-28T12:23:58.900Z,9.90
2018-03-28T12:26:27.370Z,9.80
2018-03-28T12:28:54.840Z,9.80
2018-03-28T12:31:22.312Z,9.80
2018-03-28T12:33:49.891Z,9.70
2018-03-28T12:36:17.443Z,9.60
2018-03-28T12:38:44.911Z,9.60
2018-03-28T12:41:12.413Z,9.50
2018-03-28T12:43:40.075Z,9.50
2018-03-28T12:46:07.637Z,9.40
2018-03-28T12:48:35.400Z,9.40
2018-03-28T12:51:04.088Z,9.30
2018-03-28T12:53:31.764Z,9.40
2018-03-28T12:55:59.232Z,9.40
2018-03-28T12:58:26.776Z,9.40
2018-03-28T13:00:54.535Z,9.40
2018-03-28T13:03:22.112Z,9.40
2018-03-28T13:05:50.452Z,9.40
2018-03-28T13:08:18.164Z,9.40
2018-03-28T13:10:45.854Z,9.30
2018-03-28T13:13:13.316Z,9.20
2018-03-28T13:15:40.779Z,9.10
2018-03-28T13:18:08.248Z,9.10
2018-03-28T13:20:35.716Z,9.00
2018-03-28T13:23:03.184Z,8.90
2018-03-28T13:25:30.961Z,8.80
2018-03-28T13:27:58.729Z,8.80
2018-03-28T13:30:26.192Z,8.70
2018-03-28T13:32:53.952Z,8.70
2018-03-28T13:35:21.404Z,8.70
2018-03-28T13:37:49.178Z,8.60
2018-03-28T13:40:16.935Z,8.70
2018-03-28T13:42:44.548Z,8.80
2018-03-28T13:45:12.156Z,8.90
2018-03-28T13:47:39.833Z,9.00
2018-03-28T13:50:07.375Z,9.00
2018-03-28T13:52:35.144Z,9.00
2018-03-28T13:55:02.908Z,9.00
2018-03-28T13:57:30.671Z,9.00
2018-03-28T13:59:58.139Z,8.90
2018-03-28T14:02:25.723Z,8.90
2018-03-28T14:04:53.267Z,8.90
2018-03-28T14:07:20.742Z,9.00
2018-03-28T14:09:48.212Z,9.00
2018-03-28T14:12:15.684Z,8.90
2018-03-28T14:14:43.159Z,8.90
2018-03-28T14:17:10.951Z,8.90
2018-03-28T14:19:38.424Z,9.00
2018-03-28T14:22:06.109Z,8.90
2018-03-28T14:24:33.631Z,8.90
2018-03-28T14:27:01.403Z,8.80
2018-03-28T14:29:29.163Z,8.70
2018-03-28T14:31:56.647Z,8.70
2018-03-28T14:34:24.327Z,8.60
2018-03-28T14:36:51.813Z,8.60
2018-03-28T14:39:19.299Z,8.60
2018-03-28T14:41:46.760Z,8.50
2018-03-28T14:44:14.228Z,8.50
2018-03-28T14:46:41.712Z,8.50
2018-03-28T14:49:09.443Z,8.40
2018-03-28T14:51:37.209Z,8.50
2018-03-28T14:54:04.683Z,8.50
2018-03-28T14:56:32.430Z,8.40
2018-03-28T14:59:00.104Z,8.40
2018-03-28T15:01:27.576Z,8.40
2018-03-28T15:03:55.043Z,8.30
2018-03-28T15:06:22.516Z,8.20
2018-03-28T15:08:49.987Z,8.20
2018-03-28T15:11:17.492Z,8.10
2018-03-28T15:13:44.962Z,8.10
2018-03-28T15:16:12.679Z,8.00
2018-03-28T15:18:40.161Z,7.90
2018-03-28T15:21:07.644Z,7.80
2018-03-28T15:23:35.392Z,7.80
2018-03-28T15:26:03.160Z,7.80
2018-03-28T15:28:30.612Z,7.70
2018-03-28T15:30:58.386Z,7.50
2018-03-28T15:33:25.880Z,7.50
2018-03-28T15:35:53.355Z,7.40
2018-03-28T15:38:20.986Z,7.50
2018-03-28T15:40:48.456Z,7.50
2018-03-28T15:43:15.929Z,7.60
2018-03-28T15:45:43.440Z,7.70
2018-03-28T15:48:10.901Z,7.70
2018-03-28T15:50:38.368Z,7.60
2018-03-28T15:53:06.121Z,7.70
2018-03-28T15:55:33.607Z,7.70
2018-03-28T15:58:01.065Z,7.70
2018-03-28T16:00:28.648Z,7.70
2018-03-28T16:02:56.115Z,7.80
2018-03-28T16:05:23.713Z,7.90
2018-03-28T16:07:51.173Z,7.90
2018-03-28T16:10:18.644Z,7.80
2018-03-28T16:12:46.330Z,7.80
2018-03-28T16:15:13.864Z,7.70
2018-03-28T16:17:41.360Z,7.70
2018-03-28T16:20:09.104Z,7.80
2018-03-28T16:22:36.604Z,7.80
2018-03-28T16:25:04.296Z,7.90
2018-03-28T16:27:32.060Z,7.90
2018-03-28T16:29:59.536Z,7.90
2018-03-28T16:32:27.208Z,7.80
2018-03-28T16:34:54.672Z,7.80
2018-03-28T16:37:22.132Z,7.80
2018-03-28T16:39:49.664Z,7.90
2018-03-28T16:42:17.124Z,7.90
2018-03-28T16:44:44.587Z,7.90
2018-03-28T16:47:12.360Z,7.90
2018-03-28T16:49:39.815Z,7.90
2018-03-28T16:52:07.563Z,7.90
2018-03-28T16:54:35.244Z,7.90
2018-03-28T16:57:02.783Z,7.80
2018-03-28T16:59:30.253Z,7.70
2018-03-28T17:01:57.832Z,7.70
2018-03-28T17:04:26.060Z,7.60
2018-03-28T17:06:53.531Z,7.70
2018-03-28T17:09:21.003Z,7.70
2018-03-28T17:11:48.459Z,7.60
2018-03-28T17:14:16.135Z,7.60
2018-03-28T17:16:43.641Z,7.60
2018-03-28T17:19:11.449Z,7.60
2018-03-28T17:21:39.213Z,7.50
2018-03-28T17:24:06.675Z,7.50
2018-03-28T17:26:34.655Z,7.50
2018-03-28T17:29:02.203Z,7.50
2018-03-28T17:31:29.673Z,7.40
2018-03-28T17:33:57.420Z,7.40
2018-03-28T17:36:24.887Z,7.40
2018-03-28T17:38:53.856Z,7.40
2018-03-28T17:41:21.631Z,7.40
2018-03-28T17:43:49.099Z,7.40
2018-03-28T17:46:16.560Z,7.40
2018-03-28T17:48:44.227Z,7.40
2018-03-28T17:51:12.080Z,7.30
2018-03-28T17:53:39.756Z,7.30
2018-03-28T17:56:07.208Z,7.40
2018-03-28T17:58:34.762Z,7.40
2018-03-28T18:01:02.214Z,7.30
2018-03-28T18:03:29.679Z,7.30
2018-03-28T18:05:57.142Z,7.30
2018-03-28T18:08:24.823Z,7.30
2018-03-28T18:10:52.283Z,7.30
2018-03-28T18:13:19.745Z,7.30
2018-03-28T18:15:47.203Z,7.30
2018-03-28T18:18:14.741Z,7.20
2018-03-28T18:20:42.507Z,7.30
2018-03-28T18:23:10.178Z,7.30
2018-03-28T18:25:37.719Z,7.40
2018-03-28T18:28:05.183Z,7.40
2018-03-28T18:30:32.783Z,7.50
2018-03-28T18:33:00.496Z,7.50
2018-03-28T18:35:27.953Z,7.50
2018-03-28T18:37:55.424Z,7.50
2018-03-28T18:40:23.088Z,7.50
2018-03-28T18:42:50.559Z,7.70
2018-03-28T18:45:18.026Z,7.50
2018-03-28T18:47:45.839Z,7.50
2018-03-28T18:50:13.532Z,7.50
2018-03-28T18:52:40.997Z,7.50
2018-03-28T18:55:08.763Z,7.50
2018-03-28T18:57:36.226Z,7.60
2018-03-28T19:00:03.687Z,7.60
2018-03-28T19:02:31.377Z,7.70
2018-03-28T19:04:58.837Z,7.80
2018-03-28T19:07:26.392Z,7.90
2018-03-28T19:09:54.111Z,7.90
2018-03-28T19:12:21.880Z,7.90
2018-03-28T19:14:50.260Z,7.80
2018-03-28T19:17:17.724Z,7.80
2018-03-28T19:19:45.237Z,7.60
2018-03-28T19:22:12.940Z,7.30
2018-03-28T19:24:40.405Z,7.20
2018-03-28T19:27:08.164Z,7.00
2018-03-28T19:29:35.640Z,6.80
2018-03-28T19:32:03.303Z,6.60
2018-03-28T19:34:30.847Z,6.50
2018-03-28T19:36:58.304Z,6.40
2018-03-28T19:39:26.069Z,6.20
2018-03-28T19:41:53.870Z,6.10
2018-03-28T19:44:21.599Z,6.10
2018-03-28T19:46:49.048Z,5.90
2018-03-28T19:49:16.514Z,5.70
2018-03-28T19:51:43.976Z,5.60
2018-03-28T19:54:11.428Z,5.50
2018-03-28T19:56:38.886Z,5.50
2018-03-28T19:59:06.351Z,5.40
2018-03-28T20:01:34.012Z,5.40
2018-03-28T20:04:01.472Z,5.40
2018-03-28T20:06:28.931Z,5.40
2018-03-28T20:08:56.399Z,5.50
2018-03-28T20:11:23.858Z,5.50
2018-03-28T20:13:52.078Z,5.40
2018-03-28T20:16:19.536Z,5.40
2018-03-28T20:18:47.240Z,5.30
2018-03-28T20:21:14.706Z,5.30
2018-03-28T20:23:42.460Z,5.20
2018-03-28T20:26:09.928Z,5.20
2018-03-28T20:28:37.398Z,5.20
2018-03-28T20:31:04.884Z,5.00
2018-03-28T20:33:32.606Z,5.10
2018-03-28T20:36:00.070Z,5.10
2018-03-28T20:38:27.536Z,5.10
2018-03-28T20:40:55.280Z,5.10
2018-03-28T20:43:22.745Z,5.10
2018-03-28T20:45:50.208Z,5.00
2018-03-28T20:48:17.968Z,5.10
2018-03-28T20:50:45.474Z,5.00
2018-03-28T20:53:12.940Z,5.00
2018-03-28T20:55:40.644Z,5.00
2018-03-28T20:58:08.100Z,5.00
2018-03-28T21:00:35.789Z,4.90
2018-03-28T21:03:03.323Z,4.80
2018-03-28T21:05:30.787Z,4.80
2018-03-28T21:07:58.543Z,4.80
2018-03-28T21:10:26.003Z,4.80
2018-03-28T21:12:53.451Z,4.70
2018-03-28T21:15:20.911Z,4.50
2018-03-28T21:17:48.691Z,4.50
2018-03-28T21:20:16.449Z,4.30
2018-03-28T21:22:43.903Z,4.20
2018-03-28T21:25:11.676Z,4.20
2018-03-28T21:27:39.128Z,4.10
2018-03-28T21:30:06.580Z,4.00
2018-03-28T21:32:34.238Z,4.00
2018-03-28T21:35:01.816Z,3.90
2018-03-28T21:37:29.278Z,3.70
2018-03-28T21:39:56.952Z,3.70
2018-03-28T21:42:24.487Z,3.70
2018-03-28T21:44:52.109Z,3.70
2018-03-28T21:47:19.723Z,3.80
2018-03-28T21:49:47.169Z,3.80
2018-03-28T21:52:14.945Z,3.80
2018-03-28T21:54:42.704Z,3.70
2018-03-28T21:57:10.157Z,3.70
2018-03-28T21:59:37.627Z,3.70
2018-03-28T22:02:05.389Z,3.70
2018-03-28T22:04:32.855Z,3.70
2018-03-28T22:07:00.316Z,3.80
2018-03-28T22:09:27.764Z,3.70
2018-03-28T22:11:55.230Z,3.70
2018-03-28T22:14:22.991Z,3.70
2018-03-28T22:16:50.452Z,3.70
2018-03-28T22:19:17.903Z,3.60
2018-03-28T22:21:45.364Z,3.60
2018-03-28T22:24:12.860Z,3.60
2018-03-28T22:26:40.313Z,3.60
2018-03-28T22:29:07.778Z,3.60
2018-03-28T22:31:35.499Z,3.60
2018-03-28T22:34:02.952Z,3.60
2018-03-28T22:36:30.408Z,3.60
2018-03-28T22:38:58.190Z,3.60
2018-03-28T22:41:25.652Z,3.50
2018-03-28T22:43:53.942Z,3.50
2018-03-28T22:46:22.157Z,3.50
2018-03-28T22:48:49.853Z,3.60
2018-03-28T22:51:17.321Z,3.60
2018-03-28T22:53:45.068Z,3.60
2018-03-28T22:56:12.842Z,3.60
2018-03-28T22:58:40.285Z,3.60
2018-03-28T23:01:07.804Z,3.60
2018-03-28T23:03:35.678Z,3.60
2018-03-28T23:06:03.272Z,3.60
2018-03-28T23:08:30.936Z,3.60
2018-03-28T23:10:58.408Z,3.70
2018-03-28T23:13:25.853Z,3.60
2018-03-28T23:15:53.410Z,3.70
2018-03-28T23:18:20.857Z,3.70
2018-03-28T23:20:48.302Z,3.70
2018-03-28T23:23:15.758Z,3.70
2018-03-28T23:25:43.212Z,3.70
2018-03-28T23:28:10.681Z,3.70
2018-03-28T23:30:38.144Z,3.70
2018-03-28T23:33:05.603Z,3.70
2018-03-28T23:35:33.100Z,3.70
2018-03-28T23:38:00.555Z,3.70
2018-03-28T23:40:28.316Z,3.70
2018-03-28T23:42:56.076Z,3.70
2018-03-28T23:45:23.552Z,3.70
2018-03-28T23:47:51.133Z,3.70
2018-03-28T23:50:18.756Z,3.70
2018-03-28T23:52:46.251Z,3.70
2018-03-28T23:55:14.064Z,3.70
2018-03-28T23:57:41.755Z,3.70
